Terminal Aerodrome Forecast
Issued by NWS Charleston, WV

Home | Current Version | Previous Version | Text Only | Print | Product List | Glossary On
Versions: 1 2 3 4 5 6 7 8 9 10 11 12 13 14 15 16 17 18 19 20 21 22 23 24 25
000
FTUS41 KRLX 291100
TAFCRW
TAF
KCRW 291122Z 2912/3012 16006KT P6SM BKN200
     FM291700 20008G18KT P6SM -RA BKN070
     FM291900 20009KT P6SM OVC050
     FM292300 27010G18KT P6SM OVC025
     FM300200 28010G18KT P6SM -RA OVC015
     FM300700 28011G20KT 4SM -SN OVC015
     FM300800 28010G18KT 2SM -SN OVC012=

USA.gov is the U.S. government's official web portal to all federal, state and local government web resources and services.